sensor_id;sensor_type;location;lat;lon;timestamp;pressure;altitude;pressure_sealevel;temperature
71463;BMP180;59266;52.608;13.260;2023-05-10T00:02:08;100866.00;;;12.40
71463;BMP180;59266;52.608;13.260;2023-05-10T00:04:35;100873.00;;;12.30
71463;BMP180;59266;52.608;13.260;2023-05-10T00:07:01;100876.00;;;12.40
71463;BMP180;59266;52.608;13.260;2023-05-10T00:09:29;100870.00;;;12.30
71463;BMP180;59266;52.608;13.260;2023-05-10T00:11:58;100870.00;;;12.30
71463;BMP180;59266;52.608;13.260;2023-05-10T00:14:26;100871.00;;;12.30
71463;BMP180;59266;52.608;13.260;2023-05-10T00:16:53;100866.00;;;12.20
71463;BMP180;59266;52.608;13.260;2023-05-10T00:19:21;100863.00;;;12.20
71463;BMP180;59266;52.608;13.260;2023-05-10T00:21:49;100854.00;;;12.10
71463;BMP180;59266;52.608;13.260;2023-05-10T00:24:17;100857.00;;;12.00
71463;BMP180;59266;52.608;13.260;2023-05-10T00:26:44;100854.00;;;12.00
71463;BMP180;59266;52.608;13.260;2023-05-10T00:29:11;100844.00;;;12.00
71463;BMP180;59266;52.608;13.260;2023-05-10T00:31:40;100852.00;;;12.00
71463;BMP180;59266;52.608;13.260;2023-05-10T00:34:07;100839.00;;;11.90
71463;BMP180;59266;52.608;13.260;2023-05-10T00:36:33;100847.00;;;11.90
71463;BMP180;59266;52.608;13.260;2023-05-10T00:38:59;100830.00;;;11.80
71463;BMP180;59266;52.608;13.260;2023-05-10T00:41:26;100835.00;;;11.80
71463;BMP180;59266;52.608;13.260;2023-05-10T00:43:59;100836.00;;;11.80
71463;BMP180;59266;52.608;13.260;2023-05-10T00:46:27;100831.00;;;11.70
71463;BMP180;59266;52.608;13.260;2023-05-10T00:48:55;100832.00;;;11.70
71463;BMP180;59266;52.608;13.260;2023-05-10T00:51:22;100832.00;;;11.60
71463;BMP180;59266;52.608;13.260;2023-05-10T00:53:49;100829.00;;;11.60
71463;BMP180;59266;52.608;13.260;2023-05-10T00:56:17;100827.00;;;11.60
71463;BMP180;59266;52.608;13.260;2023-05-10T00:58:43;100831.00;;;11.60
71463;BMP180;59266;52.608;13.260;2023-05-10T01:01:10;100824.00;;;11.50
71463;BMP180;59266;52.608;13.260;2023-05-10T01:03:37;100817.00;;;11.50
71463;BMP180;59266;52.608;13.260;2023-05-10T01:06:05;100810.00;;;11.40
71463;BMP180;59266;52.608;13.260;2023-05-10T01:08:32;100816.00;;;11.30
71463;BMP180;59266;52.608;13.260;2023-05-10T01:10:58;100820.00;;;11.40
71463;BMP180;59266;52.608;13.260;2023-05-10T01:15:54;100804.00;;;11.20
71463;BMP180;59266;52.608;13.260;2023-05-10T01:18:21;100810.00;;;11.30
71463;BMP180;59266;52.608;13.260;2023-05-10T01:20:55;100808.00;;;11.20
71463;BMP180;59266;52.608;13.260;2023-05-10T01:23:37;100797.00;;;11.10
71463;BMP180;59266;52.608;13.260;2023-05-10T01:32:51;100794.00;;;11.00
71463;BMP180;59266;52.608;13.260;2023-05-10T01:38:26;100799.00;;;10.90
71463;BMP180;59266;52.608;13.260;2023-05-10T01:44:24;100793.00;;;10.90
71463;BMP180;59266;52.608;13.260;2023-05-10T01:49:54;100794.00;;;10.80
71463;BMP180;59266;52.608;13.260;2023-05-10T01:52:42;100786.00;;;10.80
71463;BMP180;59266;52.608;13.260;2023-05-10T01:55:14;100786.00;;;10.80
71463;BMP180;59266;52.608;13.260;2023-05-10T01:57:43;100793.00;;;10.90
71463;BMP180;59266;52.608;13.260;2023-05-10T02:00:12;100787.00;;;10.80
71463;BMP180;59266;52.608;13.260;2023-05-10T02:02:44;100788.00;;;10.80
71463;BMP180;59266;52.608;13.260;2023-05-10T02:05:12;100786.00;;;10.80
71463;BMP180;59266;52.608;13.260;2023-05-10T02:07:40;100790.00;;;10.80
71463;BMP180;59266;52.608;13.260;2023-05-10T02:10:10;100789.00;;;10.70
71463;BMP180;59266;52.608;13.260;2023-05-10T02:12:42;100781.00;;;10.70
71463;BMP180;59266;52.608;13.260;2023-05-10T02:15:10;100781.00;;;10.70
71463;BMP180;59266;52.608;13.260;2023-05-10T02:17:39;100788.00;;;10.60
71463;BMP180;59266;52.608;13.260;2023-05-10T02:20:07;100781.00;;;10.60
71463;BMP180;59266;52.608;13.260;2023-05-10T02:22:35;100778.00;;;10.60
71463;BMP180;59266;52.608;13.260;2023-05-10T02:25:04;100774.00;;;10.50
71463;BMP180;59266;52.608;13.260;2023-05-10T02:27:34;100777.00;;;10.50
71463;BMP180;59266;52.608;13.260;2023-05-10T02:30:01;100775.00;;;10.60
71463;BMP180;59266;52.608;13.260;2023-05-10T02:32:30;100779.00;;;10.60
71463;BMP180;59266;52.608;13.260;2023-05-10T02:34:59;100771.00;;;10.60
71463;BMP180;59266;52.608;13.260;2023-05-10T02:37:31;100778.00;;;10.60
71463;BMP180;59266;52.608;13.260;2023-05-10T02:39:59;100768.00;;;10.60
71463;BMP180;59266;52.608;13.260;2023-05-10T02:42:27;100773.00;;;10.60
71463;BMP180;59266;52.608;13.260;2023-05-10T02:45:14;100772.00;;;10.60
71463;BMP180;59266;52.608;13.260;2023-05-10T02:47:42;100775.00;;;10.60
71463;BMP180;59266;52.608;13.260;2023-05-10T02:50:09;100770.00;;;10.50
71463;BMP180;59266;52.608;13.260;2023-05-10T02:52:39;100764.00;;;10.50
71463;BMP180;59266;52.608;13.260;2023-05-10T02:55:09;100770.00;;;10.50
71463;BMP180;59266;52.608;13.260;2023-05-10T02:57:40;100772.00;;;10.40
71463;BMP180;59266;52.608;13.260;2023-05-10T03:00:07;100773.00;;;10.40
71463;BMP180;59266;52.608;13.260;2023-05-10T03:02:34;100768.00;;;10.40
71463;BMP180;59266;52.608;13.260;2023-05-10T03:05:04;100764.00;;;10.30
71463;BMP180;59266;52.608;13.260;2023-05-10T03:07:31;100773.00;;;10.40
71463;BMP180;59266;52.608;13.260;2023-05-10T03:09:58;100774.00;;;10.30
71463;BMP180;59266;52.608;13.260;2023-05-10T03:13:03;100765.00;;;10.30
71463;BMP180;59266;52.608;13.260;2023-05-10T03:15:56;100773.00;;;10.30
71463;BMP180;59266;52.608;13.260;2023-05-10T03:18:48;100766.00;;;10.30
71463;BMP180;59266;52.608;13.260;2023-05-10T03:21:22;100760.00;;;10.20
71463;BMP180;59266;52.608;13.260;2023-05-10T03:23:58;100760.00;;;10.20
71463;BMP180;59266;52.608;13.260;2023-05-10T03:26:31;100760.00;;;10.20
71463;BMP180;59266;52.608;13.260;2023-05-10T03:28:58;100770.00;;;10.10
71463;BMP180;59266;52.608;13.260;2023-05-10T03:31:26;100756.00;;;10.20
71463;BMP180;59266;52.608;13.260;2023-05-10T03:34:01;100756.00;;;10.20
71463;BMP180;59266;52.608;13.260;2023-05-10T03:36:31;100759.00;;;10.10
71463;BMP180;59266;52.608;13.260;2023-05-10T03:38:58;100765.00;;;10.20
71463;BMP180;59266;52.608;13.260;2023-05-10T03:41:25;100755.00;;;10.20
71463;BMP180;59266;52.608;13.260;2023-05-10T03:43:53;100762.00;;;10.30
71463;BMP180;59266;52.608;13.260;2023-05-10T03:46:20;100753.00;;;10.30
71463;BMP180;59266;52.608;13.260;2023-05-10T03:48:47;100753.00;;;10.40
71463;BMP180;59266;52.608;13.260;2023-05-10T03:51:14;100755.00;;;10.30
71463;BMP180;59266;52.608;13.260;2023-05-10T03:53:42;100750.00;;;10.30
71463;BMP180;59266;52.608;13.260;2023-05-10T03:56:09;100742.00;;;10.30
71463;BMP180;59266;52.608;13.260;2023-05-10T03:58:36;100743.00;;;10.30
71463;BMP180;59266;52.608;13.260;2023-05-10T04:01:02;100742.00;;;10.30
71463;BMP180;59266;52.608;13.260;2023-05-10T04:03:31;100747.00;;;10.40
71463;BMP180;59266;52.608;13.260;2023-05-10T04:05:59;100745.00;;;10.40
71463;BMP180;59266;52.608;13.260;2023-05-10T04:08:26;100741.00;;;10.50
71463;BMP180;59266;52.608;13.260;2023-05-10T04:10:53;100739.00;;;10.50
71463;BMP180;59266;52.608;13.260;2023-05-10T04:13:19;100751.00;;;10.40
71463;BMP180;59266;52.608;13.260;2023-05-10T04:15:47;100740.00;;;10.50
71463;BMP180;59266;52.608;13.260;2023-05-10T04:18:14;100742.00;;;10.50
71463;BMP180;59266;52.608;13.260;2023-05-10T04:20:41;100738.00;;;10.50
71463;BMP180;59266;52.608;13.260;2023-05-10T04:23:07;100740.00;;;10.60
71463;BMP180;59266;52.608;13.260;2023-05-10T04:25:34;100740.00;;;10.60
71463;BMP180;59266;52.608;13.260;2023-05-10T04:28:01;100744.00;;;10.70
71463;BMP180;59266;52.608;13.260;2023-05-10T04:30:29;100736.00;;;10.70
71463;BMP180;59266;52.608;13.260;2023-05-10T04:32:56;100748.00;;;10.80
71463;BMP180;59266;52.608;13.260;2023-05-10T04:35:23;100737.00;;;10.90
71463;BMP180;59266;52.608;13.260;2023-05-10T04:37:51;100738.00;;;10.90
71463;BMP180;59266;52.608;13.260;2023-05-10T04:40:18;100743.00;;;10.90
71463;BMP180;59266;52.608;13.260;2023-05-10T04:42:44;100731.00;;;11.00
71463;BMP180;59266;52.608;13.260;2023-05-10T04:45:12;100730.00;;;11.00
71463;BMP180;59266;52.608;13.260;2023-05-10T04:47:41;100728.00;;;11.10
71463;BMP180;59266;52.608;13.260;2023-05-10T04:50:10;100729.00;;;11.20
71463;BMP180;59266;52.608;13.260;2023-05-10T04:52:37;100733.00;;;11.30
71463;BMP180;59266;52.608;13.260;2023-05-10T04:55:10;100732.00;;;11.30
71463;BMP180;59266;52.608;13.260;2023-05-10T04:57:39;100728.00;;;11.30
71463;BMP180;59266;52.608;13.260;2023-05-10T05:00:06;100725.00;;;11.40
71463;BMP180;59266;52.608;13.260;2023-05-10T05:02:34;100735.00;;;11.50
71463;BMP180;59266;52.608;13.260;2023-05-10T05:05:01;100730.00;;;11.50
71463;BMP180;59266;52.608;13.260;2023-05-10T05:07:28;100728.00;;;11.60
71463;BMP180;59266;52.608;13.260;2023-05-10T05:09:57;100737.00;;;11.70
71463;BMP180;59266;52.608;13.260;2023-05-10T05:12:24;100728.00;;;11.80
71463;BMP180;59266;52.608;13.260;2023-05-10T05:14:50;100730.00;;;11.80
71463;BMP180;59266;52.608;13.260;2023-05-10T05:17:17;100731.00;;;11.90
71463;BMP180;59266;52.608;13.260;2023-05-10T05:19:43;100721.00;;;12.00
71463;BMP180;59266;52.608;13.260;2023-05-10T05:22:10;100721.00;;;12.00
71463;BMP180;59266;52.608;13.260;2023-05-10T05:24:37;100727.00;;;12.10
71463;BMP180;59266;52.608;13.260;2023-05-10T05:27:04;100733.00;;;12.20
71463;BMP180;59266;52.608;13.260;2023-05-10T05:29:33;100721.00;;;12.30
71463;BMP180;59266;52.608;13.260;2023-05-10T05:32:00;100713.00;;;12.50
71463;BMP180;59266;52.608;13.260;2023-05-10T05:34:27;100721.00;;;12.60
71463;BMP180;59266;52.608;13.260;2023-05-10T05:36:54;100717.00;;;12.60
71463;BMP180;59266;52.608;13.260;2023-05-10T05:39:21;100708.00;;;12.70
71463;BMP180;59266;52.608;13.260;2023-05-10T05:41:48;100721.00;;;12.80
71463;BMP180;59266;52.608;13.260;2023-05-10T05:44:15;100714.00;;;12.90
71463;BMP180;59266;52.608;13.260;2023-05-10T05:46:42;100714.00;;;13.00
71463;BMP180;59266;52.608;13.260;2023-05-10T05:49:09;100714.00;;;13.00
71463;BMP180;59266;52.608;13.260;2023-05-10T05:51:36;100711.00;;;13.20
71463;BMP180;59266;52.608;13.260;2023-05-10T05:54:03;100708.00;;;13.40
71463;BMP180;59266;52.608;13.260;2023-05-10T05:56:30;100710.00;;;14.20
71463;BMP180;59266;52.608;13.260;2023-05-10T05:58:57;100695.00;;;15.70
71463;BMP180;59266;52.608;13.260;2023-05-10T06:01:25;100706.00;;;16.70
71463;BMP180;59266;52.608;13.260;2023-05-10T06:03:52;100701.00;;;17.10
71463;BMP180;59266;52.608;13.260;2023-05-10T06:06:19;100697.00;;;17.50
71463;BMP180;59266;52.608;13.260;2023-05-10T06:08:46;100694.00;;;18.40
71463;BMP180;59266;52.608;13.260;2023-05-10T06:11:12;100695.00;;;19.30
71463;BMP180;59266;52.608;13.260;2023-05-10T06:13:40;100702.00;;;19.60
71463;BMP180;59266;52.608;13.260;2023-05-10T06:16:09;100700.00;;;20.10
71463;BMP180;59266;52.608;13.260;2023-05-10T06:18:35;100707.00;;;22.40
71463;BMP180;59266;52.608;13.260;2023-05-10T06:21:02;100698.00;;;20.60
71463;BMP180;59266;52.608;13.260;2023-05-10T06:23:31;100695.00;;;21.80
71463;BMP180;59266;52.608;13.260;2023-05-10T06:25:58;100695.00;;;22.30
71463;BMP180;59266;52.608;13.260;2023-05-10T06:28:27;100700.00;;;22.40
71463;BMP180;59266;52.608;13.260;2023-05-10T06:30:56;100702.00;;;23.00
71463;BMP180;59266;52.608;13.260;2023-05-10T06:33:23;100698.00;;;24.80
71463;BMP180;59266;52.608;13.260;2023-05-10T06:35:50;100696.00;;;24.30
71463;BMP180;59266;52.608;13.260;2023-05-10T06:38:24;100694.00;;;24.60
71463;BMP180;59266;52.608;13.260;2023-05-10T06:40:51;100697.00;;;24.20
71463;BMP180;59266;52.608;13.260;2023-05-10T06:43:18;100689.00;;;24.30
71463;BMP180;59266;52.608;13.260;2023-05-10T06:45:47;100698.00;;;25.30
71463;BMP180;59266;52.608;13.260;2023-05-10T06:48:15;100697.00;;;24.10
71463;BMP180;59266;52.608;13.260;2023-05-10T06:50:41;100705.00;;;26.90
71463;BMP180;59266;52.608;13.260;2023-05-10T06:53:08;100705.00;;;25.70
71463;BMP180;59266;52.608;13.260;2023-05-10T06:55:35;100701.00;;;24.90
71463;BMP180;59266;52.608;13.260;2023-05-10T06:58:09;100703.00;;;24.10
71463;BMP180;59266;52.608;13.260;2023-05-10T07:00:37;100711.00;;;23.70
71463;BMP180;59266;52.608;13.260;2023-05-10T07:03:07;100702.00;;;25.20
71463;BMP180;59266;52.608;13.260;2023-05-10T07:05:36;100704.00;;;23.70
71463;BMP180;59266;52.608;13.260;2023-05-10T07:08:05;100716.00;;;24.40
71463;BMP180;59266;52.608;13.260;2023-05-10T07:10:32;100691.00;;;25.10
71463;BMP180;59266;52.608;13.260;2023-05-10T07:12:59;100704.00;;;26.50
71463;BMP180;59266;52.608;13.260;2023-05-10T07:15:26;100691.00;;;24.70
71463;BMP180;59266;52.608;13.260;2023-05-10T07:17:54;100698.00;;;25.30
71463;BMP180;59266;52.608;13.260;2023-05-10T07:20:22;100687.00;;;27.40
71463;BMP180;59266;52.608;13.260;2023-05-10T07:22:49;100694.00;;;27.60
71463;BMP180;59266;52.608;13.260;2023-05-10T07:25:15;100689.00;;;26.60
71463;BMP180;59266;52.608;13.260;2023-05-10T07:27:42;100688.00;;;27.30
71463;BMP180;59266;52.608;13.260;2023-05-10T07:30:09;100681.00;;;26.60
71463;BMP180;59266;52.608;13.260;2023-05-10T07:32:38;100686.00;;;27.10
71463;BMP180;59266;52.608;13.260;2023-05-10T07:35:06;100682.00;;;26.20
71463;BMP180;59266;52.608;13.260;2023-05-10T07:37:34;100687.00;;;29.20
71463;BMP180;59266;52.608;13.260;2023-05-10T07:40:00;100691.00;;;26.60
71463;BMP180;59266;52.608;13.260;2023-05-10T07:42:27;100691.00;;;27.60
71463;BMP180;59266;52.608;13.260;2023-05-10T07:44:54;100687.00;;;27.60
71463;BMP180;59266;52.608;13.260;2023-05-10T07:47:21;100684.00;;;28.00
71463;BMP180;59266;52.608;13.260;2023-05-10T07:49:49;100694.00;;;29.10
71463;BMP180;59266;52.608;13.260;2023-05-10T07:52:16;100687.00;;;27.40
71463;BMP180;59266;52.608;13.260;2023-05-10T07:54:42;100694.00;;;28.90
71463;BMP180;59266;52.608;13.260;2023-05-10T07:57:09;100696.00;;;30.50
71463;BMP180;59266;52.608;13.260;2023-05-10T07:59:36;100688.00;;;31.50
71463;BMP180;59266;52.608;13.260;2023-05-10T08:02:03;100693.00;;;32.70
71463;BMP180;59266;52.608;13.260;2023-05-10T08:04:30;100701.00;;;32.20
71463;BMP180;59266;52.608;13.260;2023-05-10T08:06:57;100700.00;;;29.80
71463;BMP180;59266;52.608;13.260;2023-05-10T08:09:23;100696.00;;;31.40
71463;BMP180;59266;52.608;13.260;2023-05-10T08:11:51;100701.00;;;28.10
71463;BMP180;59266;52.608;13.260;2023-05-10T08:14:19;100711.00;;;28.20
71463;BMP180;59266;52.608;13.260;2023-05-10T08:16:49;100699.00;;;28.30
71463;BMP180;59266;52.608;13.260;2023-05-10T08:19:15;100701.00;;;30.40
71463;BMP180;59266;52.608;13.260;2023-05-10T08:21:45;100698.00;;;29.80
71463;BMP180;59266;52.608;13.260;2023-05-10T08:24:12;100703.00;;;29.20
71463;BMP180;59266;52.608;13.260;2023-05-10T08:26:38;100691.00;;;29.30
71463;BMP180;59266;52.608;13.260;2023-05-10T08:29:05;100701.00;;;29.40
71463;BMP180;59266;52.608;13.260;2023-05-10T08:31:31;100706.00;;;29.70
71463;BMP180;59266;52.608;13.260;2023-05-10T08:34:00;100704.00;;;29.70
71463;BMP180;59266;52.608;13.260;2023-05-10T08:36:28;100697.00;;;29.10
71463;BMP180;59266;52.608;13.260;2023-05-10T08:38:54;100698.00;;;28.70
71463;BMP180;59266;52.608;13.260;2023-05-10T08:41:23;100693.00;;;29.30
71463;BMP180;59266;52.608;13.260;2023-05-10T08:43:53;100687.00;;;28.80
71463;BMP180;59266;52.608;13.260;2023-05-10T08:46:22;100701.00;;;29.80
71463;BMP180;59266;52.608;13.260;2023-05-10T08:48:50;100698.00;;;31.30
71463;BMP180;59266;52.608;13.260;2023-05-10T08:51:20;100702.00;;;29.30
71463;BMP180;59266;52.608;13.260;2023-05-10T08:53:50;100695.00;;;29.50
71463;BMP180;59266;52.608;13.260;2023-05-10T08:56:17;100689.00;;;29.20
71463;BMP180;59266;52.608;13.260;2023-05-10T08:58:47;100695.00;;;29.20
71463;BMP180;59266;52.608;13.260;2023-05-10T09:01:14;100694.00;;;30.40
71463;BMP180;59266;52.608;13.260;2023-05-10T09:03:45;100700.00;;;32.20
71463;BMP180;59266;52.608;13.260;2023-05-10T09:06:12;100698.00;;;32.20
71463;BMP180;59266;52.608;13.260;2023-05-10T09:08:43;100696.00;;;30.80
71463;BMP180;59266;52.608;13.260;2023-05-10T09:11:11;100698.00;;;30.30
71463;BMP180;59266;52.608;13.260;2023-05-10T09:13:38;100693.00;;;28.50
71463;BMP180;59266;52.608;13.260;2023-05-10T09:16:05;100696.00;;;30.90
71463;BMP180;59266;52.608;13.260;2023-05-10T09:18:46;100705.00;;;32.00
71463;BMP180;59266;52.608;13.260;2023-05-10T09:21:14;100700.00;;;31.20
71463;BMP180;59266;52.608;13.260;2023-05-10T09:23:45;100712.00;;;33.70
71463;BMP180;59266;52.608;13.260;2023-05-10T09:26:14;100701.00;;;31.60
71463;BMP180;59266;52.608;13.260;2023-05-10T09:28:55;100707.00;;;30.10
71463;BMP180;59266;52.608;13.260;2023-05-10T09:31:23;100708.00;;;29.90
71463;BMP180;59266;52.608;13.260;2023-05-10T09:33:51;100706.00;;;31.00
71463;BMP180;59266;52.608;13.260;2023-05-10T09:36:18;100706.00;;;30.40
71463;BMP180;59266;52.608;13.260;2023-05-10T09:38:46;100720.00;;;29.80
71463;BMP180;59266;52.608;13.260;2023-05-10T09:41:22;100722.00;;;29.80
71463;BMP180;59266;52.608;13.260;2023-05-10T09:43:49;100706.00;;;30.10
71463;BMP180;59266;52.608;13.260;2023-05-10T09:46:16;100708.00;;;29.50
71463;BMP180;59266;52.608;13.260;2023-05-10T09:48:47;100709.00;;;29.50
71463;BMP180;59266;52.608;13.260;2023-05-10T09:51:24;100716.00;;;28.70
71463;BMP180;59266;52.608;13.260;2023-05-10T09:54:09;100717.00;;;29.20
71463;BMP180;59266;52.608;13.260;2023-05-10T09:56:41;100725.00;;;30.30
71463;BMP180;59266;52.608;13.260;2023-05-10T09:59:12;100715.00;;;29.80
71463;BMP180;59266;52.608;13.260;2023-05-10T10:01:42;100711.00;;;28.00
71463;BMP180;59266;52.608;13.260;2023-05-10T10:04:15;100719.00;;;27.80
71463;BMP180;59266;52.608;13.260;2023-05-10T10:06:43;100717.00;;;30.80
71463;BMP180;59266;52.608;13.260;2023-05-10T10:09:10;100723.00;;;29.30
71463;BMP180;59266;52.608;13.260;2023-05-10T10:11:38;100706.00;;;28.00
71463;BMP180;59266;52.608;13.260;2023-05-10T10:14:05;100710.00;;;28.20
71463;BMP180;59266;52.608;13.260;2023-05-10T10:16:33;100721.00;;;27.90
71463;BMP180;59266;52.608;13.260;2023-05-10T10:19:00;100718.00;;;27.60
71463;BMP180;59266;52.608;13.260;2023-05-10T10:21:32;100717.00;;;28.80
71463;BMP180;59266;52.608;13.260;2023-05-10T10:24:02;100717.00;;;28.10
71463;BMP180;59266;52.608;13.260;2023-05-10T10:26:35;100709.00;;;27.40
71463;BMP180;59266;52.608;13.260;2023-05-10T10:32:00;100708.00;;;28.40
71463;BMP180;59266;52.608;13.260;2023-05-10T10:34:31;100706.00;;;29.50
71463;BMP180;59266;52.608;13.260;2023-05-10T10:37:06;100711.00;;;29.80
71463;BMP180;59266;52.608;13.260;2023-05-10T10:39:37;100707.00;;;29.20
71463;BMP180;59266;52.608;13.260;2023-05-10T10:42:11;100714.00;;;27.80
71463;BMP180;59266;52.608;13.260;2023-05-10T10:44:38;100719.00;;;27.40
71463;BMP180;59266;52.608;13.260;2023-05-10T10:49:48;100713.00;;;27.30
71463;BMP180;59266;52.608;13.260;2023-05-10T10:52:21;100718.00;;;28.10
71463;BMP180;59266;52.608;13.260;2023-05-10T10:54:56;100710.00;;;27.10
71463;BMP180;59266;52.608;13.260;2023-05-10T10:57:24;100702.00;;;28.00
71463;BMP180;59266;52.608;13.260;2023-05-10T11:00:22;100701.00;;;28.10
71463;BMP180;59266;52.608;13.260;2023-05-10T11:02:52;100710.00;;;28.30
71463;BMP180;59266;52.608;13.260;2023-05-10T11:07:58;100709.00;;;27.90
71463;BMP180;59266;52.608;13.260;2023-05-10T11:10:26;100702.00;;;27.70
71463;BMP180;59266;52.608;13.260;2023-05-10T11:13:00;100710.00;;;28.80
71463;BMP180;59266;52.608;13.260;2023-05-10T11:15:29;100708.00;;;27.80
71463;BMP180;59266;52.608;13.260;2023-05-10T11:17:56;100691.00;;;27.80
71463;BMP180;59266;52.608;13.260;2023-05-10T11:20:23;100711.00;;;28.00
71463;BMP180;59266;52.608;13.260;2023-05-10T11:23:11;100705.00;;;27.00
71463;BMP180;59266;52.608;13.260;2023-05-10T11:25:42;100705.00;;;27.90
71463;BMP180;59266;52.608;13.260;2023-05-10T11:28:12;100707.00;;;28.50
71463;BMP180;59266;52.608;13.260;2023-05-10T11:30:40;100705.00;;;27.30
71463;BMP180;59266;52.608;13.260;2023-05-10T11:33:08;100708.00;;;27.30
71463;BMP180;59266;52.608;13.260;2023-05-10T11:35:39;100699.00;;;26.80
71463;BMP180;59266;52.608;13.260;2023-05-10T11:38:10;100706.00;;;27.00
71463;BMP180;59266;52.608;13.260;2023-05-10T11:40:37;100697.00;;;27.30
71463;BMP180;59266;52.608;13.260;2023-05-10T11:43:05;100701.00;;;26.80
71463;BMP180;59266;52.608;13.260;2023-05-10T11:45:34;100707.00;;;27.30
71463;BMP180;59266;52.608;13.260;2023-05-10T11:48:08;100705.00;;;27.00
71463;BMP180;59266;52.608;13.260;2023-05-10T11:50:37;100704.00;;;27.50
71463;BMP180;59266;52.608;13.260;2023-05-10T11:53:04;100703.00;;;27.90
71463;BMP180;59266;52.608;13.260;2023-05-10T11:55:33;100702.00;;;27.40
71463;BMP180;59266;52.608;13.260;2023-05-10T11:58:01;100708.00;;;27.80
71463;BMP180;59266;52.608;13.260;2023-05-10T12:00:33;100699.00;;;28.10
71463;BMP180;59266;52.608;13.260;2023-05-10T12:03:01;100714.00;;;28.00
71463;BMP180;59266;52.608;13.260;2023-05-10T12:05:32;100712.00;;;27.70
71463;BMP180;59266;52.608;13.260;2023-05-10T12:08:14;100716.00;;;28.10
71463;BMP180;59266;52.608;13.260;2023-05-10T12:10:41;100707.00;;;27.30
71463;BMP180;59266;52.608;13.260;2023-05-10T12:13:12;100716.00;;;27.40
71463;BMP180;59266;52.608;13.260;2023-05-10T12:15:43;100707.00;;;27.60
71463;BMP180;59266;52.608;13.260;2023-05-10T12:18:10;100714.00;;;26.70
71463;BMP180;59266;52.608;13.260;2023-05-10T12:20:37;100705.00;;;27.20
71463;BMP180;59266;52.608;13.260;2023-05-10T12:23:09;100715.00;;;27.20
71463;BMP180;59266;52.608;13.260;2023-05-10T12:25:38;100711.00;;;27.60
71463;BMP180;59266;52.608;13.260;2023-05-10T12:28:07;100709.00;;;26.50
71463;BMP180;59266;52.608;13.260;2023-05-10T12:30:35;100727.00;;;26.70
71463;BMP180;59266;52.608;13.260;2023-05-10T12:33:08;100709.00;;;25.80
71463;BMP180;59266;52.608;13.260;2023-05-10T12:35:49;100710.00;;;27.30
71463;BMP180;59266;52.608;13.260;2023-05-10T12:38:25;100719.00;;;26.80
71463;BMP180;59266;52.608;13.260;2023-05-10T12:40:52;100706.00;;;27.20
71463;BMP180;59266;52.608;13.260;2023-05-10T12:43:18;100718.00;;;27.40
71463;BMP180;59266;52.608;13.260;2023-05-10T12:45:45;100704.00;;;27.40
71463;BMP180;59266;52.608;13.260;2023-05-10T12:48:15;100712.00;;;27.50
71463;BMP180;59266;52.608;13.260;2023-05-10T12:50:43;100716.00;;;26.80
71463;BMP180;59266;52.608;13.260;2023-05-10T12:53:11;100722.00;;;26.60
71463;BMP180;59266;52.608;13.260;2023-05-10T12:55:37;100715.00;;;26.60
71463;BMP180;59266;52.608;13.260;2023-05-10T12:58:04;100718.00;;;27.00
71463;BMP180;59266;52.608;13.260;2023-05-10T13:00:34;100715.00;;;27.10
71463;BMP180;59266;52.608;13.260;2023-05-10T13:03:04;100711.00;;;26.80
71463;BMP180;59266;52.608;13.260;2023-05-10T13:05:34;100718.00;;;27.00
71463;BMP180;59266;52.608;13.260;2023-05-10T13:08:01;100717.00;;;27.30
71463;BMP180;59266;52.608;13.260;2023-05-10T13:10:31;100711.00;;;27.10
71463;BMP180;59266;52.608;13.260;2023-05-10T13:12:58;100711.00;;;26.60
71463;BMP180;59266;52.608;13.260;2023-05-10T13:15:25;100717.00;;;26.60
71463;BMP180;59266;52.608;13.260;2023-05-10T13:17:53;100711.00;;;27.30
71463;BMP180;59266;52.608;13.260;2023-05-10T13:20:21;100713.00;;;27.30
71463;BMP180;59266;52.608;13.260;2023-05-10T13:22:48;100709.00;;;27.10
71463;BMP180;59266;52.608;13.260;2023-05-10T13:25:17;100697.00;;;27.50
71463;BMP180;59266;52.608;13.260;2023-05-10T13:27:43;100707.00;;;27.70
71463;BMP180;59266;52.608;13.260;2023-05-10T13:30:16;100696.00;;;28.00
71463;BMP180;59266;52.608;13.260;2023-05-10T13:32:45;100703.00;;;28.00
71463;BMP180;59266;52.608;13.260;2023-05-10T13:35:12;100705.00;;;28.10
71463;BMP180;59266;52.608;13.260;2023-05-10T13:37:39;100699.00;;;27.40
71463;BMP180;59266;52.608;13.260;2023-05-10T13:40:07;100693.00;;;27.30
71463;BMP180;59266;52.608;13.260;2023-05-10T13:42:34;100697.00;;;28.10
71463;BMP180;59266;52.608;13.260;2023-05-10T13:45:03;100695.00;;;28.30
71463;BMP180;59266;52.608;13.260;2023-05-10T13:47:30;100695.00;;;28.80
71463;BMP180;59266;52.608;13.260;2023-05-10T13:49:59;100700.00;;;27.90
71463;BMP180;59266;52.608;13.260;2023-05-10T13:52:29;100697.00;;;27.50
71463;BMP180;59266;52.608;13.260;2023-05-10T13:54:59;100690.00;;;28.00
71463;BMP180;59266;52.608;13.260;2023-05-10T13:57:25;100686.00;;;28.40
71463;BMP180;59266;52.608;13.260;2023-05-10T13:59:52;100690.00;;;28.30
71463;BMP180;59266;52.608;13.260;2023-05-10T14:02:22;100694.00;;;28.50
71463;BMP180;59266;52.608;13.260;2023-05-10T14:04:50;100694.00;;;28.90
71463;BMP180;59266;52.608;13.260;2023-05-10T14:07:17;100686.00;;;28.30
71463;BMP180;59266;52.608;13.260;2023-05-10T14:09:44;100690.00;;;27.90
71463;BMP180;59266;52.608;13.260;2023-05-10T14:12:11;100691.00;;;28.60
71463;BMP180;59266;52.608;13.260;2023-05-10T14:14:38;100701.00;;;29.30
71463;BMP180;59266;52.608;13.260;2023-05-10T14:17:06;100694.00;;;28.60
71463;BMP180;59266;52.608;13.260;2023-05-10T14:19:37;100696.00;;;28.60
71463;BMP180;59266;52.608;13.260;2023-05-10T14:22:05;100701.00;;;28.30